Teslin, Canada
Current Conditions -  °F | °C
As of 10:00 AM on Monday 22 Dec 2014 (Local Time) from CYXY Reporting Station
Broken Clouds Broken Clouds  
Wind Chill: 14°   Ceiling: 16000
Heat Index: 21°   Visibility: 40mi
Dew Point: 18°   Wind: 6mph
Humidity: 86%   Direction: 150°SSE
Pressure: 29.76"   Gusts: NA
Location:  60.17°N, 132.72°W
Report Text: CYXY 221800Z 15005KT 40SM FEW050 SCT120 BKN160 M06/M08 A2976 RMK SC1AC2AC4 SLP126
Loading
Personal Weather Stations






























Interactive Weather Map New forecast layout! Learn more

10-Day Weather Forecast

Advertisements
Track Severe Weather on mobile